Vance Air Force Base
KEND : now visible

Airfield :











YOU CAN JOIN US ON...

 
LOGIN :

Register | Disclaimer

   EN    FR    IT 

 









Legend :    VFR   Marginal VFR   IFR   Intensive IFR   Very Intensive IFR
Visi :
Ceiling :
>= 8 km
>= 3000ft
5 to 8 km
1000 to 3000 ft
1500m to 5 km
500 to 1000 ft
800 to 1500m
200 to 500 ft
< 800m
< 200 ft
Symbols :   Thunderstorms  Fog  Heavy snow  Heavy precipitations  Wind > 20 kt







- Airport Elevation : 1307 ft


KEND - Vance Air Force Base

CURRENT METAR :
  • 201256Z 17005KT 6SM BR CLR M07/M07 A2980 RMK AO2A SLP108 T10671067 $

EXPIRED METARs :
  • 201155Z 17005KT 5SM BR CLR M06/M06 A2980 RMK AO2A SLP108 T10651065 11011 21065 57015 $

TAF TAF KEND
Valid from the 20 at 11:00 until the 21 at 17:00 UTC


201100Z 2011/2117 22006KT 6000 BR SCT007 QNH2978INS
BECMG 2013/2014 24009KT 9999 NSW SCT250 QNH2985INS
BECMG 2023/2024 VRB06KT 9999 SCT200 QNH2990INS
BECMG 2105/2106 12006KT 9999 BKN200 QNH2995INS TX06/2021Z TNM04/2011Z
KZKC FIR / North America



MET'MAP, your aeronautical weather chart ! - Copyright ORBIFLY December 2007 - Disclaimer

ORBIFLY MET'MAP TEAM :

Programming & Development : Alexandra Zaïnal
Concept & Development : Baudouin d'Aumeries
Co-Development & Prog : Marc-Olivier Méhu
Technical & hardware support : Manuel Goepfert

Contact : metmap@orbifly.com




SOURCES & CREDITS :

   NOAA       Earth
Advisory